createdAt,value
2022-12-03T00:01:04.732Z,0.81
2022-12-03T00:06:07.770Z,0.13
2022-12-03T00:11:10.457Z,-0.39
2022-12-03T00:16:13.870Z,-0.75
2022-12-03T00:21:16.994Z,-1.02
2022-12-03T00:26:19.899Z,-1.24
2022-12-03T00:31:23.748Z,1.44
2022-12-03T00:36:26.635Z,5.00
2022-12-03T00:41:29.432Z,4.21
2022-12-03T00:46:32.266Z,2.07
2022-12-03T00:51:36.011Z,0.85
2022-12-03T00:56:38.853Z,0.12
2022-12-03T01:01:41.717Z,-0.39
2022-12-03T01:06:44.506Z,-0.77
2022-12-03T01:11:47.247Z,0.17
2022-12-03T01:16:50.019Z,3.66
2022-12-03T01:21:52.963Z,4.51
2022-12-03T01:26:56.907Z,2.47
2022-12-03T01:32:18.242Z,1.17
2022-12-03T01:37:24.650Z,0.32
2022-12-03T01:42:32.447Z,-0.28
2022-12-03T01:47:37.331Z,-0.67
2022-12-03T01:52:40.901Z,-0.95
2022-12-03T01:57:50.667Z,0.20
2022-12-03T02:03:00.211Z,3.70
2022-12-03T02:08:26.489Z,4.61
2022-12-03T02:13:29.485Z,2.35
2022-12-03T02:18:32.390Z,1.05
2022-12-03T02:24:06.096Z,0.19
2022-12-03T02:29:08.916Z,-0.42
2022-12-03T02:34:11.817Z,-0.79
2022-12-03T02:39:14.620Z,0.21
2022-12-03T02:44:17.421Z,3.76
2022-12-03T02:49:20.225Z,4.52
2022-12-03T02:54:23.598Z,2.35
2022-12-03T02:59:26.542Z,1.09
2022-12-03T03:04:30.076Z,0.35
2022-12-03T03:09:33.973Z,-0.14
2022-12-03T03:14:36.787Z,-0.54
2022-12-03T03:19:39.557Z,0.25
2022-12-03T03:24:42.392Z,3.74
2022-12-03T03:29:45.192Z,4.52
2022-12-03T03:34:47.959Z,2.31
2022-12-03T03:39:51.129Z,1.01
2022-12-03T03:44:54.062Z,0.28
2022-12-03T03:49:57.114Z,-0.29
2022-12-03T03:54:59.907Z,-0.03
2022-12-03T04:00:04.940Z,3.19
2022-12-03T04:05:11.446Z,4.87
2022-12-03T04:10:37.689Z,2.92
2022-12-03T04:15:40.414Z,1.30
2022-12-03T04:20:43.146Z,0.49
2022-12-03T04:26:04.855Z,-0.12
2022-12-03T04:31:26.804Z,-0.20
2022-12-03T04:36:29.507Z,3.12
2022-12-03T04:41:32.198Z,4.77
2022-12-03T04:46:34.910Z,2.86
2022-12-03T04:51:37.630Z,1.42
2022-12-03T04:56:40.400Z,0.56
2022-12-03T05:01:43.522Z,0.01
2022-12-03T05:06:46.926Z,-0.44
2022-12-03T05:11:49.726Z,-0.72
2022-12-03T05:16:52.605Z,0.39
2022-12-03T05:21:55.468Z,3.95
2022-12-03T05:26:58.232Z,4.84
2022-12-03T05:32:01.039Z,2.66
2022-12-03T05:37:03.742Z,1.38
2022-12-03T05:42:25.311Z,0.57
2022-12-03T05:47:28.076Z,-0.03
2022-12-03T05:52:30.984Z,0.64
2022-12-03T05:57:33.757Z,4.11
2022-12-03T06:02:36.564Z,4.87
2022-12-03T06:07:39.809Z,2.72
2022-12-03T06:12:43.281Z,1.40
2022-12-03T06:17:46.420Z,0.64
2022-12-03T06:22:49.220Z,0.09
2022-12-03T06:27:52.023Z,-0.27
2022-12-03T06:32:55.028Z,-0.51
2022-12-03T06:37:58.239Z,0.67
2022-12-03T06:43:01.047Z,4.37
2022-12-03T06:48:03.964Z,4.96
2022-12-03T06:53:06.689Z,2.85
2022-12-03T06:58:09.451Z,1.70
2022-12-03T07:03:12.472Z,0.94
2022-12-03T07:08:15.333Z,0.41
2022-12-03T07:13:18.054Z,0.03
2022-12-03T07:18:20.981Z,1.47
2022-12-03T07:23:23.805Z,4.97
2022-12-03T07:28:26.561Z,4.71
2022-12-03T07:33:29.286Z,2.74
2022-12-03T07:38:31.994Z,1.71
2022-12-03T07:43:34.833Z,1.02
2022-12-03T07:48:37.669Z,0.52
2022-12-03T07:53:40.389Z,0.11
2022-12-03T07:58:43.131Z,-0.22
2022-12-03T08:03:45.867Z,0.87
2022-12-03T08:08:48.577Z,4.99
2022-12-03T08:13:51.275Z,5.62
2022-12-03T08:18:57.512Z,3.35
2022-12-03T08:24:12.724Z,2.09
2022-12-03T08:29:19.020Z,1.29
2022-12-03T08:34:24.567Z,0.74
2022-12-03T08:39:37.735Z,0.33
2022-12-03T08:44:41.251Z,0.03
2022-12-03T08:49:51.441Z,1.03
2022-12-03T08:54:56.270Z,5.01
2022-12-03T08:59:59.477Z,5.92
2022-12-03T09:05:22.208Z,3.63
2022-12-03T09:10:24.921Z,2.26
2022-12-03T09:15:28.577Z,1.42
2022-12-03T09:20:31.376Z,0.81
2022-12-03T09:25:34.325Z,0.40
2022-12-03T09:30:37.786Z,1.54
2022-12-03T09:35:40.473Z,5.52
2022-12-03T09:40:43.294Z,5.88
2022-12-03T09:45:47.779Z,3.50
2022-12-03T09:50:51.853Z,2.11
2022-12-03T09:56:01.400Z,1.26
2022-12-03T10:01:13.869Z,2.19
2022-12-03T10:06:23.217Z,5.55
2022-12-03T10:11:27.127Z,5.24
2022-12-03T10:16:30.915Z,3.09
2022-12-03T10:21:38.784Z,1.98
2022-12-03T10:26:41.789Z,1.26
2022-12-03T10:31:45.080Z,0.71
2022-12-03T10:36:47.782Z,0.34
2022-12-03T10:41:50.605Z,1.39
2022-12-03T10:47:10.376Z,5.01
2022-12-03T10:52:25.933Z,5.13
2022-12-03T10:57:29.107Z,2.95
2022-12-03T11:02:31.914Z,1.85
2022-12-03T11:07:38.736Z,1.13
2022-12-03T11:12:41.589Z,0.63
2022-12-03T11:17:47.391Z,1.99
2022-12-03T11:22:51.507Z,5.68
2022-12-03T11:28:15.596Z,5.93
2022-12-03T11:33:33.472Z,3.39
2022-12-03T11:38:54.083Z,2.06
2022-12-03T11:43:58.619Z,1.30
2022-12-03T11:49:03.688Z,0.75
2022-12-03T11:54:06.545Z,0.29
2022-12-03T11:59:13.515Z,-0.02
2022-12-03T12:04:38.135Z,1.31
2022-12-03T12:09:55.345Z,5.28
2022-12-03T12:14:59.400Z,4.94
2022-12-03T12:20:27.901Z,2.97
2022-12-03T12:25:30.650Z,1.80
2022-12-03T12:30:33.860Z,1.16
2022-12-03T12:35:37.205Z,0.64
2022-12-03T12:40:45.122Z,0.40
2022-12-03T12:45:48.179Z,3.85
2022-12-03T12:51:01.177Z,5.69
2022-12-03T12:56:09.960Z,3.42
2022-12-03T13:01:21.617Z,2.05
2022-12-03T13:06:28.345Z,1.36
2022-12-03T13:11:45.757Z,1.01
2022-12-03T13:16:53.901Z,0.80
2022-12-03T13:22:02.819Z,0.71
2022-12-03T13:27:23.128Z,2.03
2022-12-03T13:32:27.299Z,5.94
2022-12-03T13:37:31.824Z,5.57
2022-12-03T13:42:39.220Z,3.59
2022-12-03T13:47:47.532Z,2.43
2022-12-03T13:52:50.312Z,1.62
2022-12-03T13:57:53.706Z,1.07
2022-12-03T14:02:56.517Z,0.62
2022-12-03T14:08:02.263Z,0.30
2022-12-03T14:13:05.204Z,1.62
2022-12-03T14:18:07.951Z,5.34
2022-12-03T14:23:10.672Z,5.41
2022-12-03T14:28:13.453Z,3.20
2022-12-03T14:33:16.251Z,1.97
2022-12-03T14:38:19.259Z,1.19
2022-12-03T14:43:22.073Z,0.62
2022-12-03T14:48:24.755Z,0.25
2022-12-03T14:53:27.747Z,1.30
2022-12-03T14:58:30.530Z,4.88
2022-12-03T15:03:33.288Z,5.53
2022-12-03T15:08:36.031Z,3.33
2022-12-03T15:13:38.809Z,2.05
2022-12-03T15:18:41.546Z,1.31
2022-12-03T15:23:44.293Z,0.77
2022-12-03T15:28:48.506Z,0.33
2022-12-03T15:33:51.724Z,0.01
2022-12-03T15:38:54.523Z,0.98
2022-12-03T15:43:59.961Z,4.45
2022-12-03T15:49:03.412Z,5.45
2022-12-03T15:54:06.847Z,3.34
2022-12-03T15:59:09.845Z,2.05
2022-12-03T16:04:12.683Z,1.28
2022-12-03T16:09:15.504Z,0.74
2022-12-03T16:14:20.472Z,0.37
2022-12-03T16:19:23.198Z,1.40
2022-12-03T16:24:26.312Z,5.33
2022-12-03T16:29:29.598Z,5.73
2022-12-03T16:34:32.368Z,3.48
2022-12-03T16:39:35.345Z,2.16
2022-12-03T16:44:58.374Z,1.30
2022-12-03T16:50:07.593Z,0.65
2022-12-03T16:55:10.427Z,1.04
2022-12-03T17:00:14.205Z,4.62
2022-12-03T17:05:17.057Z,6.20
2022-12-03T17:10:19.854Z,4.03
2022-12-03T17:15:22.948Z,2.41
2022-12-03T17:20:25.931Z,1.46
2022-12-03T17:25:30.049Z,0.79
2022-12-03T17:30:33.275Z,1.12
2022-12-03T17:35:36.089Z,4.68
2022-12-03T17:40:39.026Z,6.72
2022-12-03T17:45:43.521Z,5.95
2022-12-03T17:50:46.766Z,3.58
2022-12-03T17:55:49.617Z,2.23
2022-12-03T18:00:54.891Z,1.28
2022-12-03T18:06:00.102Z,2.45
2022-12-03T18:11:02.895Z,6.14
2022-12-03T18:16:06.063Z,6.48
2022-12-03T18:21:08.899Z,4.04
2022-12-03T18:26:11.876Z,2.63
2022-12-03T18:31:16.601Z,1.77
2022-12-03T18:36:25.695Z,1.15
2022-12-03T18:41:28.864Z,2.22
2022-12-03T18:46:52.350Z,6.02
2022-12-03T18:51:58.874Z,6.44
2022-12-03T18:57:02.198Z,3.94
2022-12-03T19:02:05.750Z,2.56
2022-12-03T19:07:09.773Z,1.72
2022-12-03T19:12:14.714Z,1.14
2022-12-03T19:17:17.737Z,0.75
2022-12-03T19:22:20.512Z,1.89
2022-12-03T19:27:23.257Z,5.96
2022-12-03T19:32:25.984Z,6.64
2022-12-03T19:37:30.969Z,4.39
2022-12-03T19:42:33.770Z,3.12
2022-12-03T19:47:37.081Z,2.33
2022-12-03T19:52:39.782Z,1.77
2022-12-03T19:57:42.471Z,2.73
2022-12-03T20:02:48.899Z,6.17
2022-12-03T20:07:51.748Z,7.09
2022-12-03T20:12:54.528Z,4.95
2022-12-03T20:17:57.367Z,3.53
2022-12-03T20:23:00.080Z,2.68
2022-12-03T20:28:02.785Z,2.06
2022-12-03T20:33:05.572Z,1.56
2022-12-03T20:38:08.282Z,2.48
2022-12-03T20:43:11.074Z,5.97
2022-12-03T20:48:14.169Z,7.10
2022-12-03T20:53:24.642Z,4.92
2022-12-03T20:58:28.706Z,3.35
2022-12-03T21:03:31.492Z,2.52
2022-12-03T21:08:41.399Z,1.90
2022-12-03T21:13:47.966Z,2.98
2022-12-03T21:18:50.727Z,6.87
2022-12-03T21:23:53.635Z,6.75
2022-12-03T21:28:56.355Z,4.62
2022-12-03T21:33:59.150Z,3.46
2022-12-03T21:39:01.937Z,2.68
2022-12-03T21:44:04.752Z,2.11
2022-12-03T21:49:07.669Z,2.94
2022-12-03T21:54:10.569Z,6.48
2022-12-03T21:59:13.270Z,7.33
2022-12-03T22:04:15.950Z,5.08
2022-12-03T22:09:24.804Z,3.69
2022-12-03T22:14:30.006Z,2.77
2022-12-03T22:19:32.767Z,2.14
2022-12-03T22:24:35.568Z,2.80
2022-12-03T22:29:38.317Z,6.15
2022-12-03T22:34:44.218Z,8.05
2022-12-03T22:39:47.033Z,6.49
2022-12-03T22:44:49.722Z,4.58
2022-12-03T22:49:52.638Z,3.53
2022-12-03T22:54:55.652Z,2.79
2022-12-03T22:59:58.352Z,3.75
2022-12-03T23:05:01.154Z,7.32
2022-12-03T23:10:04.736Z,7.44
2022-12-03T23:15:08.510Z,5.21
2022-12-03T23:20:12.357Z,3.94
2022-12-03T23:25:15.532Z,3.05
2022-12-03T23:30:18.425Z,3.88
2022-12-03T23:35:21.375Z,7.76
2022-12-03T23:40:24.246Z,7.67
2022-12-03T23:45:26.993Z,5.24
2022-12-03T23:50:30.314Z,3.92
2022-12-03T23:55:33.779Z,3.09
